KSHN/SHN METAR and TAF weather

Enter ICAO airport designator
Station Type Date Time Source
KSHN METAR 2019/04/25 07:53 UTC NOAA

KSHN 250753Z AUTO 00000KT 10SM CLR 04/02 A3024 RMK AO2 SLP244 T00390017 401780017


Station Type Date Time Source
KSHN Decoded METAR 2019/04/25 07:53 UTC NOAA

SHELTON SANDERSON FIELD, WA, United States (KSHN) 47-14N 123-08W 82M
Apr 25, 2019 - 03:53 AM EDT / 2019.04.25 0753 UTC
Wind: Calm:0
Visibility: 10 mile(s):0
Sky conditions: clear
Temperature: 39.0 F (3.9 C)
Dew Point: 35.1 F (1.7 C)
Relative Humidity: 85%
Pressure (altimeter): 30.24 in. Hg (1024 hPa)
ob: KSHN 250753Z AUTO 00000KT 10SM CLR 04/02 A3024 RMK AO2 SLP244 T00390017 401780017
cycle: 8

Station Type Date Time Source
KSHN TAF UTC NOAA

Error!

Example: see airport list